createdAt,value
2023-04-30T00:15:09.811Z,7.4
2023-04-30T00:20:18.352Z,7.3
2023-04-30T00:25:44.900Z,7.2
2023-04-30T00:31:25.356Z,7.2
2023-04-30T00:35:37.609Z,7.1
2023-04-30T00:41:08.105Z,7.0
2023-04-30T00:45:50.434Z,6.9
2023-04-30T00:50:56.747Z,6.9
2023-04-30T01:06:15.907Z,6.6
2023-04-30T01:11:22.247Z,6.6
2023-04-30T01:16:48.695Z,6.6
2023-04-30T01:21:24.991Z,6.5
2023-04-30T01:27:05.448Z,6.4
2023-04-30T01:31:48.004Z,6.4
2023-04-30T01:36:54.461Z,6.3
2023-04-30T01:42:00.824Z,6.2
2023-04-30T01:47:07.218Z,6.2
2023-04-30T01:52:13.614Z,6.1
2023-04-30T01:57:19.969Z,6.0
2023-04-30T02:02:26.532Z,6.0
2023-04-30T02:07:57.128Z,5.9
2023-04-30T02:13:03.506Z,5.9
2023-04-30T02:17:35.940Z,5.8
2023-04-30T02:22:52.197Z,5.7
2023-04-30T02:27:58.867Z,5.7
2023-04-30T02:33:05.159Z,5.6
2023-04-30T02:38:31.690Z,5.6
2023-04-30T02:43:38.097Z,5.5
2023-04-30T02:48:48.452Z,5.5
2023-04-30T03:03:43.694Z,5.3
2023-04-30T03:08:50.089Z,5.3
2023-04-30T03:13:56.474Z,5.2
2023-04-30T03:19:02.879Z,5.2
2023-04-30T03:24:09.247Z,5.1
2023-04-30T03:29:15.625Z,5.1
2023-04-30T03:34:22.036Z,5.0
2023-04-30T03:39:28.512Z,5.0
2023-04-30T03:44:54.947Z,4.9
2023-04-30T03:50:05.352Z,4.9
2023-04-30T03:54:47.720Z,4.8
2023-04-30T04:00:14.079Z,4.8
2023-04-30T04:05:00.597Z,4.7
2023-04-30T04:10:06.949Z,4.7
2023-04-30T04:15:13.408Z,4.6
2023-04-30T04:20:59.786Z,4.6
2023-04-30T04:25:46.162Z,4.6
2023-04-30T04:30:32.466Z,4.5
2023-04-30T04:35:38.974Z,4.5
2023-04-30T04:40:35.526Z,4.4
2023-04-30T04:46:14.293Z,4.4
2023-04-30T04:51:18.441Z,4.4
2023-04-30T04:56:04.790Z,4.3
2023-04-30T05:01:11.263Z,4.4
2023-04-30T05:06:17.638Z,4.3
2023-04-30T05:11:44.129Z,4.3
2023-04-30T05:16:20.732Z,4.3
2023-04-30T05:21:37.189Z,4.4
2023-04-30T05:26:43.433Z,4.4
2023-04-30T05:31:39.854Z,4.5
2023-04-30T05:36:46.230Z,4.5
2023-04-30T05:42:01.676Z,4.6
2023-04-30T05:47:09.155Z,4.6
2023-04-30T05:52:15.560Z,4.8
2023-04-30T05:57:21.939Z,4.8
2023-04-30T06:02:28.510Z,4.9
2023-04-30T06:07:54.895Z,5.0
2023-04-30T06:13:01.122Z,5.1
2023-04-30T06:18:59.616Z,5.2
2023-04-30T06:23:17.934Z,5.4
2023-04-30T06:28:00.374Z,5.5
2023-04-30T06:33:07.326Z,5.6
2023-04-30T06:38:13.713Z,5.7
2023-04-30T06:43:20.078Z,5.9
2023-04-30T06:48:16.403Z,6.0
2023-04-30T06:53:52.867Z,6.2
2023-04-30T06:58:39.301Z,6.3
2023-04-30T07:03:45.670Z,6.5
2023-04-30T07:09:12.085Z,6.6
2023-04-30T07:13:58.577Z,6.8
2023-04-30T07:19:04.934Z,7.0
2023-04-30T07:24:11.322Z,7.2
2023-04-30T07:29:17.717Z,7.4
2023-04-30T07:34:24.149Z,7.9
2023-04-30T07:44:36.920Z,9.8
2023-04-30T07:49:33.258Z,10.9
2023-04-30T07:54:49.644Z,12.0
2023-04-30T08:00:20.113Z,13.0
2023-04-30T08:05:02.604Z,14.0
2023-04-30T08:10:08.975Z,14.9
2023-04-30T08:15:15.400Z,15.6
2023-04-30T08:20:21.870Z,16.3
2023-04-30T08:25:28.170Z,17.0
2023-04-30T08:30:34.534Z,17.7
2023-04-30T08:35:41.070Z,18.4
2023-04-30T08:40:50.891Z,19.0
2023-04-30T08:45:52.912Z,19.6
2023-04-30T09:01:14.620Z,21.3
2023-04-30T09:06:21.036Z,21.9
2023-04-30T09:11:17.323Z,22.3
2023-04-30T09:16:53.751Z,22.8
2023-04-30T09:21:40.116Z,23.3
2023-04-30T09:26:46.625Z,23.7
2023-04-30T09:31:53.150Z,24.2
2023-04-30T09:37:23.531Z,24.6
2023-04-30T09:42:29.901Z,25.0
2023-04-30T09:47:15.834Z,25.4
2023-04-30T09:52:22.212Z,25.8
2023-04-30T09:57:28.619Z,26.2
2023-04-30T10:02:59.288Z,26.5
2023-04-30T10:07:42.697Z,26.9
2023-04-30T10:12:49.097Z,27.3
2023-04-30T10:17:55.539Z,27.7
2023-04-30T10:23:01.855Z,28.0
2023-04-30T10:28:08.260Z,28.3
2023-04-30T10:33:16.584Z,28.5
2023-04-30T10:38:21.046Z,28.7
2023-04-30T10:43:27.514Z,28.8
2023-04-30T10:48:33.810Z,29.1
2023-04-30T10:53:40.209Z,29.4
2023-04-30T10:59:27.874Z,29.6
2023-04-30T11:04:12.163Z,29.8
2023-04-30T11:08:59.513Z,30.0
2023-04-30T11:14:05.896Z,30.1
2023-04-30T11:19:12.393Z,30.1
2023-04-30T11:24:38.706Z,30.2
2023-04-30T11:34:45.505Z,30.2
2023-04-30T11:40:34.061Z,30.2
2023-04-30T11:44:44.325Z,30.2
2023-04-30T11:50:10.776Z,30.2
2023-04-30T11:55:41.195Z,30.2
2023-04-30T12:00:03.458Z,30.1
2023-04-30T12:05:29.918Z,29.9
2023-04-30T12:15:22.748Z,29.6
2023-04-30T12:20:29.159Z,29.4
2023-04-30T12:25:35.533Z,29.2
2023-04-30T12:30:41.910Z,29.0
2023-04-30T12:35:48.398Z,28.8
2023-04-30T12:40:54.844Z,28.7
2023-04-30T12:46:01.247Z,28.6
2023-04-30T12:51:07.615Z,28.6
2023-04-30T12:56:14.006Z,28.5
2023-04-30T13:01:20.464Z,28.5
2023-04-30T13:06:26.788Z,28.4
2023-04-30T13:11:33.200Z,28.4
2023-04-30T13:17:03.705Z,28.4
2023-04-30T13:22:30.237Z,28.4
2023-04-30T13:28:04.701Z,28.5
2023-04-30T13:32:55.095Z,28.5
2023-04-30T13:37:05.368Z,28.6
2023-04-30T13:42:01.751Z,28.6
2023-04-30T13:52:50.661Z,28.7
2023-04-30T13:57:33.008Z,28.7
2023-04-30T14:02:39.536Z,28.7
2023-04-30T14:08:09.816Z,28.7
2023-04-30T14:13:16.210Z,28.7
2023-04-30T14:17:58.715Z,28.6
2023-04-30T14:23:05.140Z,28.5
2023-04-30T14:28:11.527Z,28.3
2023-04-30T14:33:17.955Z,28.0
2023-04-30T14:38:24.291Z,27.9
2023-04-30T14:43:30.667Z,27.7
2023-04-30T14:48:37.185Z,27.5
2023-04-30T14:53:43.556Z,27.3
2023-04-30T14:58:49.934Z,27.1
2023-04-30T15:03:56.428Z,26.9
2023-04-30T15:09:02.707Z,26.7
2023-04-30T15:14:09.116Z,26.4
2023-04-30T15:19:39.560Z,26.2
2023-04-30T15:24:22.001Z,25.9
2023-04-30T15:29:52.440Z,25.6
2023-04-30T15:34:34.938Z,25.4
2023-04-30T15:40:01.393Z,25.2
2023-04-30T15:46:05.867Z,24.9
2023-04-30T15:49:54.292Z,24.7
2023-04-30T15:55:00.477Z,24.5
2023-04-30T16:00:06.972Z,24.3
2023-04-30T16:05:37.406Z,24.1
2023-04-30T16:10:39.895Z,23.8
2023-04-30T16:15:26.272Z,23.7
2023-04-30T16:20:32.621Z,23.4
2023-04-30T16:26:03.068Z,23.2
2023-04-30T16:31:09.588Z,23.0
2023-04-30T16:35:51.890Z,22.8
2023-04-30T16:40:58.457Z,22.6
2023-04-30T16:46:06.122Z,22.4
2023-04-30T16:51:36.544Z,22.2
2023-04-30T16:56:19.389Z,22.0
2023-04-30T17:01:50.897Z,21.8
2023-04-30T17:06:33.823Z,21.6
2023-04-30T17:11:40.452Z,21.4
2023-04-30T17:16:46.837Z,21.3
2023-04-30T17:21:53.338Z,21.2
2023-04-30T17:26:59.779Z,21.1
2023-04-30T17:32:30.231Z,21.0
2023-04-30T17:37:12.524Z,20.9
2023-04-30T17:42:43.000Z,20.7
2023-04-30T17:48:09.489Z,20.6
2023-04-30T17:52:31.833Z,20.4
2023-04-30T17:58:40.069Z,20.2
2023-04-30T18:02:43.811Z,20.0
2023-04-30T18:07:51.164Z,19.8
2023-04-30T18:13:21.592Z,19.6
2023-04-30T18:18:03.970Z,19.4
2023-04-30T18:23:10.300Z,19.2
2023-04-30T18:28:40.793Z,19.0
2023-04-30T18:33:23.158Z,18.8
2023-04-30T18:38:29.513Z,18.6
2023-04-30T18:43:59.976Z,18.4
2023-04-30T18:48:42.323Z,18.1
2023-04-30T18:53:48.665Z,17.9
2023-04-30T18:58:56.180Z,17.7
2023-04-30T19:04:02.704Z,17.5
2023-04-30T19:09:09.056Z,17.2
2023-04-30T19:14:15.437Z,17.0
2023-04-30T19:21:03.917Z,16.5
2023-04-30T19:25:50.311Z,16.5
2023-04-30T19:30:56.982Z,16.3
2023-04-30T19:36:03.172Z,16.1
2023-04-30T19:41:09.535Z,15.9
2023-04-30T19:46:16.007Z,15.7
2023-04-30T19:56:28.768Z,15.3
2023-04-30T20:01:35.164Z,15.1
2023-04-30T20:06:41.598Z,15.0
2023-04-30T20:12:11.970Z,14.8
2023-04-30T20:20:52.793Z,14.6
2023-04-30T20:22:00.721Z,14.5
2023-04-30T20:27:31.176Z,14.3
2023-04-30T20:32:37.676Z,14.1
2023-04-30T20:37:39.950Z,14.0
2023-04-30T20:42:26.365Z,13.8
2023-04-30T20:47:32.820Z,13.7
2023-04-30T20:52:39.131Z,13.5
2023-04-30T20:57:45.517Z,13.4
2023-04-30T21:02:52.184Z,13.2
2023-04-30T21:08:22.478Z,13.1
2023-04-30T21:13:04.833Z,13.0
2023-04-30T21:18:01.349Z,12.9
2023-04-30T21:23:17.601Z,12.7
2023-04-30T21:28:23.981Z,12.6
2023-04-30T21:33:30.527Z,12.5
2023-04-30T21:38:39.093Z,12.4
2023-04-30T21:44:09.562Z,12.2
2023-04-30T21:49:15.257Z,12.1
2023-04-30T21:54:25.606Z,12.0
2023-04-30T21:59:07.948Z,11.9
2023-04-30T22:05:34.667Z,11.7
2023-04-30T22:09:48.736Z,11.6
2023-04-30T22:15:11.125Z,11.5
2023-04-30T22:19:37.515Z,11.4
2023-04-30T22:24:43.915Z,11.3
2023-04-30T22:29:50.299Z,11.2
2023-04-30T22:34:56.657Z,11.1
2023-04-30T22:45:11.697Z,10.9
2023-04-30T22:50:18.219Z,10.9
2023-04-30T22:56:01.833Z,10.8
2023-04-30T23:01:06.279Z,10.6
2023-04-30T23:07:35.756Z,10.6
2023-04-30T23:11:44.026Z,10.6
2023-04-30T23:16:46.431Z,10.5
2023-04-30T23:21:52.743Z,10.4
2023-04-30T23:26:43.809Z,10.3
2023-04-30T23:32:10.360Z,10.3
2023-04-30T23:36:58.743Z,10.2
2023-04-30T23:42:25.155Z,10.1
2023-04-30T23:47:11.587Z,10.0
2023-04-30T23:57:24.349Z,9.9
